Time;durP1;ratioP1;P1;durP2;ratioP2;P2;SDS_P1;SDS_P2;PMS_P1;PMS_P2;Temp;Humidity;BMP_temperature;BMP_pressure;BME280_temperature;BME280_humidity;BME280_pressure;Samples;Min_cycle;Max_cycle;Signal;HPM_P1;HPM_P2
2022/03/18 00:01:33;;;;;;;21.88;4.45;;;;;;;;;;5065227;28;20529;-75
2022/03/18 00:04:01;;;;;;;27.67;4.28;;;;;;;;;;5063212;28;20490;-75
2022/03/18 00:06:28;;;;;;;31.42;4.80;;;;;;;;;;5056529;28;20354;-75
2022/03/18 00:08:55;;;;;;;23.65;4.70;;;;;;;;;;5063222;28;20075;-75
2022/03/18 00:11:23;;;;;;;19.80;4.43;;;;;;;;;;5060766;28;20131;-75
2022/03/18 00:13:50;;;;;;;23.33;4.68;;;;;;;;;;5063980;28;20116;-75
2022/03/18 00:16:17;;;;;;;36.90;5.68;;;;;;;;;;5067319;28;20110;-75
2022/03/18 00:18:44;;;;;;;36.75;5.63;;;;;;;;;;5067032;28;20552;-74
2022/03/18 00:21:12;;;;;;;29.45;4.53;;;;;;;;;;5059621;28;20128;-75
2022/03/18 00:23:40;;;;;;;25.25;5.68;;;;;;;;;;5060684;28;20052;-75
2022/03/18 00:26:07;;;;;;;23.67;5.25;;;;;;;;;;5064554;28;20075;-75
2022/03/18 00:28:34;;;;;;;28.05;4.95;;;;;;;;;;5055705;28;20140;-74
2022/03/18 00:31:03;;;;;;;25.10;5.28;;;;;;;;;;5055607;28;20744;-75
2022/03/18 00:33:31;;;;;;;38.72;6.00;;;;;;;;;;5061660;28;20069;-74
2022/03/18 00:35:58;;;;;;;38.50;5.60;;;;;;;;;;5065037;28;20066;-75
2022/03/18 00:38:25;;;;;;;24.20;4.80;;;;;;;;;;5059841;28;20088;-74
2022/03/18 00:40:54;;;;;;;24.65;7.05;;;;;;;;;;5067784;28;20139;-75
2022/03/18 00:43:21;;;;;;;26.95;6.95;;;;;;;;;;5068172;28;20670;-74
2022/03/18 00:45:49;;;;;;;30.83;8.25;;;;;;;;;;5066437;28;20139;-74
2022/03/18 00:53:48;;;;;;;30.58;7.22;;;;;;;;;;5068006;28;20100;-75
2022/03/18 00:56:15;;;;;;;28.98;6.40;;;;;;;;;;5067825;28;20489;-74
2022/03/18 00:58:43;;;;;;;31.50;5.63;;;;;;;;;;5052063;28;20045;-75
2022/03/18 01:01:10;;;;;;;32.30;6.00;;;;;;;;;;5051672;28;20521;-75
2022/03/18 01:03:37;;;;;;;31.00;5.60;;;;;;;;;;5048105;28;20223;-75
2022/03/18 01:06:05;;;;;;;30.15;6.10;;;;;;;;;;5066600;28;20048;-75
2022/03/18 01:08:32;;;;;;;34.38;6.55;;;;;;;;;;5055387;28;20136;-74
2022/03/18 01:11:01;;;;;;;25.48;5.60;;;;;;;;;;5063037;28;20103;-75
2022/03/18 01:13:28;;;;;;;25.13;6.25;;;;;;;;;;5066829;28;20055;-75
2022/03/18 01:15:55;;;;;;;35.13;5.47;;;;;;;;;;5055244;28;20501;-75
2022/03/18 01:18:22;;;;;;;29.27;5.72;;;;;;;;;;5067803;28;20496;-75
2022/03/18 01:20:50;;;;;;;30.95;5.82;;;;;;;;;;5076030;28;20651;-75
2022/03/18 01:23:17;;;;;;;23.42;4.65;;;;;;;;;;5049587;28;20056;-75
2022/03/18 01:25:44;;;;;;;30.67;6.78;;;;;;;;;;5065985;28;20155;-75
2022/03/18 01:28:11;;;;;;;18.88;5.35;;;;;;;;;;5062333;28;20064;-75
2022/03/18 01:30:39;;;;;;;32.03;5.07;;;;;;;;;;5065507;28;20588;-75
2022/03/18 01:33:07;;;;;;;29.05;6.57;;;;;;;;;;5067744;28;20048;-75
2022/03/18 01:35:34;;;;;;;31.90;5.90;;;;;;;;;;5061085;28;20081;-75
2022/03/18 01:38:01;;;;;;;37.13;6.10;;;;;;;;;;5059775;28;20053;-75
2022/03/18 01:40:28;;;;;;;23.63;5.35;;;;;;;;;;5067111;28;20091;-74
2022/03/18 01:42:56;;;;;;;28.60;5.63;;;;;;;;;;5057418;28;20127;-75
2022/03/18 01:45:24;;;;;;;28.17;6.30;;;;;;;;;;5069139;28;20099;-75
2022/03/18 01:47:52;;;;;;;32.38;6.03;;;;;;;;;;5068110;28;20060;-75
2022/03/18 01:50:20;;;;;;;36.22;6.22;;;;;;;;;;5068288;28;20095;-75
2022/03/18 01:52:48;;;;;;;28.63;6.20;;;;;;;;;;5069136;28;20136;-75
2022/03/18 01:55:16;;;;;;;18.35;6.47;;;;;;;;;;5068321;28;20048;-75
2022/03/18 01:57:44;;;;;;;30.08;5.40;;;;;;;;;;5064660;28;20078;-75
2022/03/18 02:00:12;;;;;;;26.45;5.90;;;;;;;;;;5069113;28;20083;-74
2022/03/18 02:02:39;;;;;;;23.58;6.50;;;;;;;;;;5065652;28;20088;-74
2022/03/18 02:05:09;;;;;;;24.75;6.78;;;;;;;;;;5070777;28;20444;-75
2022/03/18 02:07:37;;;;;;;28.40;6.60;;;;;;;;;;5067135;28;20052;-74
2022/03/18 02:10:04;;;;;;;17.05;5.53;;;;;;;;;;5072117;28;20084;-75
2022/03/18 02:12:32;;;;;;;22.20;6.07;;;;;;;;;;5058878;28;20088;-74
2022/03/18 02:14:59;;;;;;;23.80;6.00;;;;;;;;;;5054078;28;20128;-75
2022/03/18 02:17:26;;;;;;;27.52;6.30;;;;;;;;;;5052690;28;20057;-75
2022/03/18 02:19:54;;;;;;;24.60;6.35;;;;;;;;;;5068735;28;20091;-75
2022/03/18 02:22:21;;;;;;;28.27;7.30;;;;;;;;;;5072087;28;20067;-75
2022/03/18 02:24:49;;;;;;;25.08;6.38;;;;;;;;;;5065476;28;20550;-76
2022/03/18 02:27:17;;;;;;;32.08;7.30;;;;;;;;;;5067598;28;20744;-75
2022/03/18 02:29:45;;;;;;;27.65;6.60;;;;;;;;;;5070312;28;20080;-75
2022/03/18 02:32:18;;;;;;;26.52;6.00;;;;;;;;;;5060538;28;20153;-75
2022/03/18 02:34:45;;;;;;;31.23;7.57;;;;;;;;;;5054766;28;20045;-75
2022/03/18 02:37:12;;;;;;;29.25;6.20;;;;;;;;;;5066815;28;20136;-75
2022/03/18 02:39:39;;;;;;;20.75;6.28;;;;;;;;;;5069063;28;20086;-75
2022/03/18 02:42:07;;;;;;;34.22;7.55;;;;;;;;;;5069728;28;20083;-75
2022/03/18 02:44:34;;;;;;;34.97;7.38;;;;;;;;;;5069167;28;20052;-75
2022/03/18 02:47:01;;;;;;;27.05;7.90;;;;;;;;;;5068777;28;20955;-75
2022/03/18 02:49:29;;;;;;;49.45;7.97;;;;;;;;;;5066888;28;20083;-76
2022/03/18 02:51:56;;;;;;;33.08;6.65;;;;;;;;;;5057265;28;20112;-75
2022/03/18 02:54:23;;;;;;;26.70;7.50;;;;;;;;;;5063416;28;20071;-75
2022/03/18 02:56:50;;;;;;;34.03;7.70;;;;;;;;;;5049692;28;20045;-75
2022/03/18 02:59:18;;;;;;;26.30;6.72;;;;;;;;;;5048995;28;20128;-75
2022/03/18 03:01:45;;;;;;;25.10;6.07;;;;;;;;;;5060336;28;20457;-75
2022/03/18 03:04:14;;;;;;;21.02;6.22;;;;;;;;;;5065228;28;20060;-74
2022/03/18 03:09:28;;;;;;;22.30;6.43;;;;;;;;;;5059924;28;20079;-75
2022/03/18 03:11:56;;;;;;;29.15;6.22;;;;;;;;;;5079388;22;20044;-75
2022/03/18 03:14:23;;;;;;;32.25;6.95;;;;;;;;;;5068639;28;20052;-75
2022/03/18 03:16:51;;;;;;;24.98;6.95;;;;;;;;;;5068055;28;20140;-75
2022/03/18 03:19:18;;;;;;;38.20;7.50;;;;;;;;;;5069187;28;20699;-74
2022/03/18 03:21:45;;;;;;;41.78;7.53;;;;;;;;;;5067267;28;20084;-75
2022/03/18 03:24:13;;;;;;;44.83;7.72;;;;;;;;;;5068628;28;20080;-75
2022/03/18 03:26:40;;;;;;;26.27;6.50;;;;;;;;;;5063401;28;20052;-74
2022/03/18 03:29:07;;;;;;;37.60;6.30;;;;;;;;;;5068755;28;20480;-74
2022/03/18 03:31:35;;;;;;;26.25;6.72;;;;;;;;;;5068209;28;20155;-74
2022/03/18 03:34:02;;;;;;;38.53;6.78;;;;;;;;;;5068400;28;20040;-74
2022/03/18 03:36:29;;;;;;;20.73;5.90;;;;;;;;;;5068616;28;20171;-75
2022/03/18 03:38:56;;;;;;;23.40;5.43;;;;;;;;;;5067454;28;20528;-74
2022/03/18 03:41:24;;;;;;;18.15;5.50;;;;;;;;;;5068031;28;20122;-75
2022/03/18 03:43:51;;;;;;;25.85;5.63;;;;;;;;;;5069748;28;20168;-75
2022/03/18 03:46:18;;;;;;;22.77;5.25;;;;;;;;;;5069437;28;20076;-75
2022/03/18 03:48:45;;;;;;;22.13;5.78;;;;;;;;;;5070921;28;20154;-78
2022/03/18 03:51:13;;;;;;;25.60;5.60;;;;;;;;;;5071022;28;20079;-78
2022/03/18 03:53:40;;;;;;;28.67;5.43;;;;;;;;;;5069679;28;20082;-75
2022/03/18 03:56:07;;;;;;;24.85;6.53;;;;;;;;;;5071726;28;20234;-75
2022/03/18 03:58:34;;;;;;;21.77;5.57;;;;;;;;;;5071210;28;20081;-75
2022/03/18 04:01:02;;;;;;;30.85;5.93;;;;;;;;;;5070735;28;20088;-75
2022/03/18 04:03:30;;;;;;;28.95;6.57;;;;;;;;;;5069512;28;20063;-75
2022/03/18 04:05:57;;;;;;;30.45;6.18;;;;;;;;;;5067930;28;20127;-74
2022/03/18 04:08:24;;;;;;;27.92;7.55;;;;;;;;;;5067213;28;20084;-75
2022/03/18 04:10:54;;;;;;;36.20;6.13;;;;;;;;;;5067749;28;20083;-75
2022/03/18 04:13:21;;;;;;;27.17;6.28;;;;;;;;;;5067297;28;20055;-74
2022/03/18 04:15:48;;;;;;;25.88;6.07;;;;;;;;;;5068313;28;20520;-75
2022/03/18 04:18:16;;;;;;;26.75;6.78;;;;;;;;;;5070437;28;20493;-75
2022/03/18 04:20:43;;;;;;;19.35;6.15;;;;;;;;;;5068705;28;20160;-75
2022/03/18 04:23:10;;;;;;;26.20;5.93;;;;;;;;;;5070014;28;20104;-74
2022/03/18 04:25:37;;;;;;;24.95;6.82;;;;;;;;;;5067286;28;20481;-75
2022/03/18 04:28:05;;;;;;;21.20;5.93;;;;;;;;;;5070126;28;20191;-75
2022/03/18 04:30:32;;;;;;;24.05;7.20;;;;;;;;;;5067986;28;20049;-75
2022/03/18 04:32:59;;;;;;;25.27;6.68;;;;;;;;;;5069531;28;20741;-75
2022/03/18 04:35:27;;;;;;;28.35;6.68;;;;;;;;;;5085340;28;20131;-74
2022/03/18 04:37:54;;;;;;;23.55;6.15;;;;;;;;;;5073048;28;20084;-75
2022/03/18 04:40:21;;;;;;;22.85;6.10;;;;;;;;;;5069243;28;20099;-75
2022/03/18 04:45:32;;;;;;;31.92;7.15;;;;;;;;;;5065054;28;20055;-76
2022/03/18 04:47:59;;;;;;;31.77;6.70;;;;;;;;;;5063387;28;20131;-77
2022/03/18 04:50:27;;;;;;;18.40;5.63;;;;;;;;;;5044266;28;20080;-76
2022/03/18 04:52:54;;;;;;;30.08;6.18;;;;;;;;;;5045429;28;20128;-76
2022/03/18 04:55:22;;;;;;;28.38;6.32;;;;;;;;;;5063113;28;20159;-76
2022/03/18 04:57:49;;;;;;;33.90;7.80;;;;;;;;;;5066141;28;20489;-76
2022/03/18 05:00:17;;;;;;;23.52;6.43;;;;;;;;;;5060733;28;20048;-76
2022/03/18 05:02:44;;;;;;;25.27;7.05;;;;;;;;;;5059992;28;20135;-76
2022/03/18 05:05:17;;;;;;;37.10;6.13;;;;;;;;;;5058689;28;20052;-76
2022/03/18 05:07:50;;;;;;;23.35;6.95;;;;;;;;;;5064766;28;20048;-76
2022/03/18 05:10:18;;;;;;;30.27;6.90;;;;;;;;;;5064454;28;20115;-73
2022/03/18 05:12:45;;;;;;;32.20;5.82;;;;;;;;;;5064218;28;20519;-73
2022/03/18 05:15:13;;;;;;;32.35;5.97;;;;;;;;;;5064287;28;20578;-73
2022/03/18 05:17:40;;;;;;;24.75;5.60;;;;;;;;;;5054030;28;20094;-74
2022/03/18 05:20:09;;;;;;;25.65;5.80;;;;;;;;;;5065413;28;20096;-73
2022/03/18 05:22:36;;;;;;;36.47;7.05;;;;;;;;;;5062495;28;20620;-73
2022/03/18 05:25:03;;;;;;;25.65;6.32;;;;;;;;;;5065079;28;20401;-76
2022/03/18 05:27:30;;;;;;;18.77;6.47;;;;;;;;;;5049197;28;20148;-73
2022/03/18 05:29:58;;;;;;;26.08;5.70;;;;;;;;;;5050153;28;20076;-73
2022/03/18 05:32:25;;;;;;;27.17;8.00;;;;;;;;;;5052693;28;20081;-73
2022/03/18 05:34:52;;;;;;;19.20;6.43;;;;;;;;;;5045788;28;20100;-73
2022/03/18 05:37:19;;;;;;;31.77;6.80;;;;;;;;;;5047171;28;20080;-73
2022/03/18 05:39:47;;;;;;;31.58;5.90;;;;;;;;;;5056658;28;20072;-73
2022/03/18 05:42:14;;;;;;;31.63;6.15;;;;;;;;;;5063206;28;20203;-75
2022/03/18 05:44:41;;;;;;;31.38;6.80;;;;;;;;;;5049963;28;20080;-74
2022/03/18 05:47:08;;;;;;;46.40;7.60;;;;;;;;;;5049759;28;20106;-75
2022/03/18 05:53:04;;;;;;;28.50;6.75;;;;;;;;;;5116399;22;20047;-89
2022/03/18 05:58:19;;;;;;;20.77;6.60;;;;;;;;;;5076525;28;20078;-90
2022/03/18 06:00:47;;;;;;;29.13;6.43;;;;;;;;;;5075476;28;20063;-90
2022/03/18 06:03:14;;;;;;;36.65;7.60;;;;;;;;;;5076325;28;20048;-90
2022/03/18 06:05:42;;;;;;;47.00;9.23;;;;;;;;;;5069782;28;20076;-89
2022/03/18 06:14:02;;;;;;;133.77;12.50;;;;;;;;;;5002183;28;20134;-91
2022/03/18 06:16:47;;;;;;;84.88;11.50;;;;;;;;;;5007641;28;20046;-91
2022/03/18 06:19:17;;;;;;;140.60;11.60;;;;;;;;;;5038939;28;20056;-90
2022/03/18 06:21:45;;;;;;;164.43;12.48;;;;;;;;;;5077036;28;20053;-89
2022/03/18 06:24:13;;;;;;;115.05;12.77;;;;;;;;;;5076340;28;20510;-88
2022/03/18 06:26:40;;;;;;;121.63;12.80;;;;;;;;;;5076549;28;20086;-89
2022/03/18 06:29:08;;;;;;;136.35;12.18;;;;;;;;;;5076646;28;20060;-89
2022/03/18 06:31:35;;;;;;;126.38;13.98;;;;;;;;;;5077477;28;20492;-88
2022/03/18 06:34:03;;;;;;;104.80;12.73;;;;;;;;;;5077453;28;20053;-87
2022/03/18 06:36:31;;;;;;;130.55;13.55;;;;;;;;;;5076373;28;20045;-92
2022/03/18 06:39:00;;;;;;;140.18;12.77;;;;;;;;;;5077333;28;20048;-91
2022/03/18 06:41:27;;;;;;;152.20;11.70;;;;;;;;;;5059655;28;20478;-91
2022/03/18 06:43:55;;;;;;;157.82;12.15;;;;;;;;;;5055933;28;20075;-91
2022/03/18 06:46:22;;;;;;;147.63;11.13;;;;;;;;;;5060641;28;20045;-91
2022/03/18 06:48:50;;;;;;;224.77;12.70;;;;;;;;;;5073950;28;20052;-91
2022/03/18 06:51:18;;;;;;;129.75;11.38;;;;;;;;;;5074439;28;20086;-91
2022/03/18 06:53:45;;;;;;;117.25;10.10;;;;;;;;;;5072394;28;20068;-90
2022/03/18 06:56:12;;;;;;;115.03;12.38;;;;;;;;;;5069163;28;20075;-91
2022/03/18 06:58:40;;;;;;;122.75;11.55;;;;;;;;;;5067693;28;20097;-91
2022/03/18 07:01:07;;;;;;;83.93;9.32;;;;;;;;;;5072625;28;20102;-91
2022/03/18 07:03:38;;;;;;;69.85;9.13;;;;;;;;;;5073407;28;20052;-90
2022/03/18 07:06:09;;;;;;;130.60;10.40;;;;;;;;;;5076195;28;20060;-93
2022/03/18 07:08:36;;;;;;;111.03;8.77;;;;;;;;;;5074530;28;20052;-92
2022/03/18 07:11:04;;;;;;;71.75;9.50;;;;;;;;;;5073809;28;20134;-92
2022/03/18 07:13:31;;;;;;;145.40;14.35;;;;;;;;;;5069374;28;20101;-92
2022/03/18 07:18:50;;;;;;;150.43;15.52;;;;;;;;;;5075498;28;20063;-92
2022/03/18 07:21:18;;;;;;;277.02;16.23;;;;;;;;;;5073023;28;20075;-93
2022/03/18 07:23:45;;;;;;;280.92;13.82;;;;;;;;;;5073571;28;20056;-92
2022/03/18 07:26:12;;;;;;;194.77;12.05;;;;;;;;;;5075794;28;20082;-93
2022/03/18 07:28:39;;;;;;;197.07;13.98;;;;;;;;;;5063101;28;20076;-92
2022/03/18 07:31:07;;;;;;;237.30;16.95;;;;;;;;;;5073042;28;20087;-90
2022/03/18 07:33:34;;;;;;;153.93;11.77;;;;;;;;;;5070948;28;20195;-93
2022/03/18 07:36:01;;;;;;;398.77;17.52;;;;;;;;;;5075531;28;20044;-86
2022/03/18 07:38:28;;;;;;;295.50;17.48;;;;;;;;;;5079399;28;20065;-92
2022/03/18 07:40:56;;;;;;;192.18;14.63;;;;;;;;;;5087084;28;20067;-91
2022/03/18 07:43:23;;;;;;;162.98;13.85;;;;;;;;;;5089158;28;20052;-90
2022/03/18 07:45:50;;;;;;;236.50;15.90;;;;;;;;;;5086884;28;20052;-91
2022/03/18 07:48:18;;;;;;;352.77;17.88;;;;;;;;;;5095307;28;20050;-90
2022/03/18 07:50:45;;;;;;;126.38;12.55;;;;;;;;;;5096405;28;20058;-89
2022/03/18 07:53:13;;;;;;;167.98;13.75;;;;;;;;;;5090193;28;20055;-90
2022/03/18 07:55:40;;;;;;;145.48;14.55;;;;;;;;;;5079864;28;20045;-91
2022/03/18 07:58:07;;;;;;;65.13;12.68;;;;;;;;;;5078097;28;20053;-92
2022/03/18 08:00:35;;;;;;;62.33;11.32;;;;;;;;;;5075395;28;20052;-92
2022/03/18 08:03:03;;;;;;;47.25;10.30;;;;;;;;;;5074930;28;20056;-92
2022/03/18 08:05:31;;;;;;;63.25;10.95;;;;;;;;;;5074678;28;20052;-92
2022/03/18 08:07:59;;;;;;;75.50;10.52;;;;;;;;;;5074235;28;20052;-92
2022/03/18 08:10:26;;;;;;;26.35;10.48;;;;;;;;;;5074580;28;20048;-93
2022/03/18 08:12:54;;;;;;;41.80;11.65;;;;;;;;;;5074221;28;20561;-93
2022/03/18 08:15:21;;;;;;;32.17;12.00;;;;;;;;;;5074879;28;20466;-92
2022/03/18 08:17:52;;;;;;;35.80;11.73;;;;;;;;;;5074560;28;20095;-91
2022/03/18 08:20:20;;;;;;;65.55;12.80;;;;;;;;;;5075121;28;20071;-92
2022/03/18 08:22:48;;;;;;;26.40;11.20;;;;;;;;;;5074113;28;20392;-91
2022/03/18 08:25:16;;;;;;;30.65;12.18;;;;;;;;;;5073637;28;20102;-91
2022/03/18 08:27:43;;;;;;;30.80;12.15;;;;;;;;;;5072801;28;20075;-92
2022/03/18 08:30:11;;;;;;;25.38;11.57;;;;;;;;;;5073676;28;20489;-92
2022/03/18 08:32:39;;;;;;;32.00;12.35;;;;;;;;;;5074213;28;20500;-92
2022/03/18 08:35:07;;;;;;;28.92;12.05;;;;;;;;;;5075208;28;20053;-92
2022/03/18 08:40:21;;;;;;;20.20;9.60;;;;;;;;;;5068950;28;20076;-93
2022/03/18 08:42:48;;;;;;;18.92;8.93;;;;;;;;;;5075519;28;20049;-92
2022/03/18 08:45:16;;;;;;;24.63;9.05;;;;;;;;;;5074765;28;20098;-93
2022/03/18 08:47:44;;;;;;;23.90;7.35;;;;;;;;;;5074959;28;20056;-93
2022/03/18 08:50:11;;;;;;;16.08;7.60;;;;;;;;;;5074824;28;20056;-93
2022/03/18 08:52:39;;;;;;;14.82;6.97;;;;;;;;;;5075443;28;20070;-93
2022/03/18 08:55:07;;;;;;;17.27;6.82;;;;;;;;;;5075453;28;20566;-93
2022/03/18 08:57:37;;;;;;;15.50;5.95;;;;;;;;;;5074354;28;20041;-91
2022/03/18 09:00:07;;;;;;;20.45;6.88;;;;;;;;;;5074207;28;20070;-94
2022/03/18 09:02:35;;;;;;;16.15;5.82;;;;;;;;;;5073778;28;20052;-93
2022/03/18 09:05:03;;;;;;;15.75;5.95;;;;;;;;;;5073419;28;20052;-93
2022/03/18 09:07:30;;;;;;;16.95;5.65;;;;;;;;;;5073411;28;20079;-92
2022/03/18 09:09:57;;;;;;;18.17;5.00;;;;;;;;;;5073611;28;20052;-92
2022/03/18 09:12:25;;;;;;;16.88;5.38;;;;;;;;;;5093068;28;20051;-93
2022/03/18 09:14:52;;;;;;;20.60;6.35;;;;;;;;;;5083616;28;20060;-93
2022/03/18 09:17:19;;;;;;;18.50;5.13;;;;;;;;;;5073136;28;20091;-92
2022/03/18 09:19:47;;;;;;;17.60;5.00;;;;;;;;;;5080343;28;20056;-93
2022/03/18 09:22:16;;;;;;;14.45;4.63;;;;;;;;;;5092557;28;20097;-93
2022/03/18 09:24:46;;;;;;;15.93;4.43;;;;;;;;;;5075500;28;20052;-93
2022/03/18 09:27:16;;;;;;;11.27;4.03;;;;;;;;;;5071913;28;20052;-92
2022/03/18 09:29:43;;;;;;;15.00;4.18;;;;;;;;;;5072667;28;20052;-94
2022/03/18 09:32:11;;;;;;;18.95;4.50;;;;;;;;;;5074443;28;20048;-93
2022/03/18 09:34:38;;;;;;;12.05;4.55;;;;;;;;;;5074308;28;20052;-93
2022/03/18 09:37:06;;;;;;;10.80;4.43;;;;;;;;;;5074240;28;20482;-93
2022/03/18 09:39:33;;;;;;;12.50;4.30;;;;;;;;;;5074032;28;20057;-93
2022/03/18 09:42:04;;;;;;;11.50;4.32;;;;;;;;;;5067864;28;20493;-93
2022/03/18 09:44:32;;;;;;;17.00;4.38;;;;;;;;;;5073094;28;20106;-94
2022/03/18 09:47:01;;;;;;;10.65;4.25;;;;;;;;;;5073439;28;20123;-93
2022/03/18 09:49:29;;;;;;;16.05;4.32;;;;;;;;;;5073720;28;20052;-92
2022/03/18 09:51:56;;;;;;;12.50;4.30;;;;;;;;;;5072183;28;20114;-92
2022/03/18 09:56:55;;;;;;;17.13;4.20;;;;;;;;;;5029579;28;20072;-76
2022/03/18 09:59:23;;;;;;;10.73;4.00;;;;;;;;;;5029812;28;20136;-77
2022/03/18 10:01:51;;;;;;;14.45;4.15;;;;;;;;;;5049825;28;20567;-76
2022/03/18 10:04:18;;;;;;;13.57;4.40;;;;;;;;;;5037095;28;20049;-77
2022/03/18 10:06:45;;;;;;;12.60;4.03;;;;;;;;;;5036724;28;20119;-78
2022/03/18 10:09:16;;;;;;;13.02;4.40;;;;;;;;;;5037460;28;20133;-79
2022/03/18 10:11:47;;;;;;;15.43;4.65;;;;;;;;;;5054225;28;20458;-79
2022/03/18 10:14:15;;;;;;;14.75;4.22;;;;;;;;;;5030467;28;20053;-79
2022/03/18 10:16:50;;;;;;;17.20;4.60;;;;;;;;;;5047029;28;20132;-79
2022/03/18 10:19:18;;;;;;;14.80;4.03;;;;;;;;;;5049627;28;20045;-79
2022/03/18 10:21:55;;;;;;;74.22;7.63;;;;;;;;;;5064876;28;20080;-79
2022/03/18 10:24:23;;;;;;;60.45;6.63;;;;;;;;;;5063423;28;20088;-79
2022/03/18 10:26:51;;;;;;;69.75;6.55;;;;;;;;;;5024356;28;20069;-78
2022/03/18 10:29:18;;;;;;;54.85;6.05;;;;;;;;;;5042251;28;20053;-77
2022/03/18 10:32:01;;;;;;;275.73;20.20;;;;;;;;;;5025768;28;20132;-76
2022/03/18 10:37:21;;;;;;;13.05;4.70;;;;;;;;;;5028105;28;20845;-77
2022/03/18 10:39:50;;;;;;;14.93;5.10;;;;;;;;;;5067490;28;20539;-79
2022/03/18 10:42:21;;;;;;;14.85;4.30;;;;;;;;;;5065077;28;20057;-78
2022/03/18 10:44:52;;;;;;;17.45;4.80;;;;;;;;;;5050801;28;20137;-77
2022/03/18 10:47:27;;;;;;;12.48;4.55;;;;;;;;;;5030071;28;20049;-78
2022/03/18 10:50:14;;;;;;;13.57;5.18;;;;;;;;;;5060149;28;20540;-78
2022/03/18 10:52:41;;;;;;;18.45;5.45;;;;;;;;;;5050033;28;20064;-78
2022/03/18 10:55:22;;;;;;;21.27;5.15;;;;;;;;;;5043166;28;20140;-77
2022/03/18 10:57:49;;;;;;;16.23;5.65;;;;;;;;;;5030046;28;20081;-78
2022/03/18 11:00:20;;;;;;;14.95;4.88;;;;;;;;;;5029868;28;20155;-78
2022/03/18 11:02:49;;;;;;;14.50;4.47;;;;;;;;;;5029854;28;20061;-78
2022/03/18 11:05:18;;;;;;;9.32;4.55;;;;;;;;;;5028235;28;20055;-78
2022/03/18 11:07:45;;;;;;;17.00;4.90;;;;;;;;;;5030524;28;20089;-78
2022/03/18 11:13:00;;;;;;;10.30;3.97;;;;;;;;;;5011217;28;20050;-78
2022/03/18 11:15:28;;;;;;;13.85;5.82;;;;;;;;;;5030551;28;20461;-82
2022/03/18 11:17:56;;;;;;;15.88;4.68;;;;;;;;;;5045701;28;20100;-78
2022/03/18 11:20:27;;;;;;;13.25;4.97;;;;;;;;;;5053264;28;20132;-81
2022/03/18 11:22:55;;;;;;;14.40;5.00;;;;;;;;;;5024609;28;20073;-84
2022/03/18 11:25:23;;;;;;;16.58;5.15;;;;;;;;;;5031418;28;20145;-82
2022/03/18 11:27:51;;;;;;;10.38;4.70;;;;;;;;;;5046488;28;20080;-79
2022/03/18 11:30:26;;;;;;;19.95;5.45;;;;;;;;;;5030771;28;20049;-82
2022/03/18 11:33:13;;;;;;;13.98;4.47;;;;;;;;;;5031455;28;20049;-81
2022/03/18 11:35:49;;;;;;;12.02;4.85;;;;;;;;;;5034434;28;20085;-81
2022/03/18 11:38:23;;;;;;;13.82;4.90;;;;;;;;;;5028305;28;20054;-84
2022/03/18 11:40:53;;;;;;;8.90;3.80;;;;;;;;;;5010730;28;20128;-80
2022/03/18 11:43:30;;;;;;;10.98;3.90;;;;;;;;;;5030411;28;20140;-80
2022/03/18 11:46:16;;;;;;;;;;;;;;;;;;;;;
2022/03/18 11:48:49;;;;;;;12.00;4.65;;;;;;;;;;5037218;28;20050;-80
2022/03/18 11:51:26;;;;;;;18.40;4.60;;;;;;;;;;5043324;28;20118;-80
2022/03/18 11:53:54;;;;;;;25.38;5.78;;;;;;;;;;5058691;28;20103;-80
2022/03/18 11:56:41;;;;;;;14.05;4.38;;;;;;;;;;5037646;28;20049;-80
2022/03/18 11:59:31;;;;;;;9.38;4.20;;;;;;;;;;5048129;28;20080;-79
2022/03/18 12:02:06;;;;;;;9.93;3.78;;;;;;;;;;5038731;28;20083;-78
2022/03/18 12:04:33;;;;;;;16.98;4.22;;;;;;;;;;5037851;28;20841;-78
2022/03/18 12:07:11;;;;;;;13.23;4.00;;;;;;;;;;5040845;28;20041;-78
2022/03/18 12:09:47;;;;;;;16.60;3.50;;;;;;;;;;5038424;28;20108;-79
2022/03/18 12:12:16;;;;;;;10.27;3.65;;;;;;;;;;5054006;28;20080;-78
2022/03/18 12:14:43;;;;;;;10.35;3.55;;;;;;;;;;5039895;28;20490;-79
2022/03/18 12:17:10;;;;;;;14.90;3.88;;;;;;;;;;5038744;28;20057;-79
2022/03/18 12:19:50;;;;;;;11.82;3.92;;;;;;;;;;5034643;28;20053;-79
2022/03/18 12:22:19;;;;;;;15.48;4.43;;;;;;;;;;5051034;28;20053;-78
2022/03/18 12:24:54;;;;;;;8.48;3.45;;;;;;;;;;5055043;28;20096;-78
2022/03/18 12:27:23;;;;;;;9.35;3.35;;;;;;;;;;5048615;28;20542;-78
2022/03/18 12:29:51;;;;;;;9.90;2.97;;;;;;;;;;5037738;28;20048;-78
2022/03/18 12:32:19;;;;;;;10.07;3.47;;;;;;;;;;5036672;28;20099;-78
2022/03/18 12:34:51;;;;;;;13.27;3.55;;;;;;;;;;5038210;28;20521;-78
2022/03/18 12:37:21;;;;;;;7.20;2.80;;;;;;;;;;5055507;28;20136;-78
2022/03/18 12:40:00;;;;;;;11.13;3.00;;;;;;;;;;5039999;28;20044;-79
2022/03/18 12:42:28;;;;;;;6.53;3.17;;;;;;;;;;5053019;28;20049;-79
2022/03/18 12:44:59;;;;;;;9.85;3.97;;;;;;;;;;5041636;28;20128;-79
2022/03/18 12:47:32;;;;;;;10.38;2.90;;;;;;;;;;5038793;28;20089;-79
2022/03/18 12:50:00;;;;;;;7.65;2.90;;;;;;;;;;5052975;28;20135;-78
2022/03/18 12:52:27;;;;;;;6.32;2.75;;;;;;;;;;5051367;28;20057;-79
2022/03/18 12:55:07;;;;;;;9.07;3.85;;;;;;;;;;5044454;28;20049;-79
2022/03/18 12:57:38;;;;;;;7.88;3.35;;;;;;;;;;5045660;28;20085;-78
2022/03/18 13:00:08;;;;;;;11.52;4.18;;;;;;;;;;5033274;28;20049;-78
2022/03/18 13:02:56;;;;;;;12.85;4.38;;;;;;;;;;5050067;28;20755;-82
2022/03/18 13:05:27;;;;;;;17.30;4.55;;;;;;;;;;5052585;28;20076;-78
2022/03/18 13:07:58;;;;;;;13.65;4.38;;;;;;;;;;5035276;28;20048;-77
2022/03/18 13:10:25;;;;;;;14.60;4.72;;;;;;;;;;5027293;28;20128;-78
2022/03/18 13:12:53;;;;;;;14.63;4.70;;;;;;;;;;5030785;28;20059;-82
2022/03/18 13:15:20;;;;;;;16.30;5.50;;;;;;;;;;5035416;28;20088;-78
2022/03/18 13:17:49;;;;;;;13.88;4.65;;;;;;;;;;5026711;28;20048;-78
2022/03/18 13:20:24;;;;;;;16.70;5.90;;;;;;;;;;5030035;28;20497;-78
2022/03/18 13:22:59;;;;;;;9.38;4.13;;;;;;;;;;5043408;28;20061;-78
2022/03/18 13:25:28;;;;;;;19.27;5.97;;;;;;;;;;5046109;28;20045;-78
2022/03/18 13:27:56;;;;;;;13.95;5.05;;;;;;;;;;5034482;28;20048;-77
2022/03/18 13:33:10;;;;;;;25.70;9.48;;;;;;;;;;5034885;28;20507;-77
2022/03/18 13:35:43;;;;;;;25.08;7.28;;;;;;;;;;5026133;28;20052;-76
2022/03/18 13:38:10;;;;;;;21.80;7.63;;;;;;;;;;5030960;28;20049;-75
2022/03/18 13:40:38;;;;;;;33.28;12.52;;;;;;;;;;5036709;28;20124;-77
2022/03/18 13:43:09;;;;;;;15.52;5.15;;;;;;;;;;5024943;28;20092;-77
2022/03/18 13:45:40;;;;;;;16.17;5.70;;;;;;;;;;5021431;28;20056;-76
2022/03/18 13:48:07;;;;;;;16.02;6.15;;;;;;;;;;5023041;28;20133;-75
2022/03/18 13:50:43;;;;;;;12.77;4.45;;;;;;;;;;5013954;28;20545;-77
2022/03/18 13:53:18;;;;;;;16.48;4.15;;;;;;;;;;5038214;28;20080;-76
2022/03/18 13:55:45;;;;;;;10.17;4.20;;;;;;;;;;5023761;28;20163;-76
2022/03/18 13:58:24;;;;;;;29.00;5.78;;;;;;;;;;5025172;28;20110;-75
2022/03/18 14:00:51;;;;;;;13.32;4.10;;;;;;;;;;5027342;28;20101;-78
2022/03/18 14:03:28;;;;;;;13.25;4.18;;;;;;;;;;5028902;28;20068;-76
2022/03/18 14:06:00;;;;;;;18.33;5.30;;;;;;;;;;5025093;28;20124;-77
2022/03/18 14:08:42;;;;;;;50.78;6.22;;;;;;;;;;5025747;28;20456;-77
2022/03/18 14:14:18;;;;;;;16.10;5.13;;;;;;;;;;5018226;28;20054;-76
2022/03/18 14:17:04;;;;;;;19.95;5.90;;;;;;;;;;5020293;28;20132;-77
2022/03/18 14:19:51;;;;;;;12.77;4.47;;;;;;;;;;5061894;28;20061;-77
2022/03/18 14:22:38;;;;;;;14.00;4.45;;;;;;;;;;5032926;28;20175;-77
2022/03/18 14:25:07;;;;;;;16.23;4.78;;;;;;;;;;5026283;28;20077;-77
2022/03/18 14:27:48;;;;;;;13.65;3.92;;;;;;;;;;5009669;28;20125;-77
2022/03/18 14:30:26;;;;;;;14.50;5.03;;;;;;;;;;5008108;28;20139;-75
2022/03/18 14:32:55;;;;;;;17.20;4.53;;;;;;;;;;5017081;28;20060;-76
2022/03/18 14:35:22;;;;;;;14.88;4.10;;;;;;;;;;5042970;28;20140;-77
2022/03/18 14:37:50;;;;;;;20.35;4.45;;;;;;;;;;5022641;28;20108;-77
2022/03/18 14:40:18;;;;;;;14.55;4.63;;;;;;;;;;5024130;28;20053;-77
2022/03/18 14:42:45;;;;;;;16.13;4.38;;;;;;;;;;5023332;28;20053;-77
2022/03/18 14:45:15;;;;;;;15.43;4.68;;;;;;;;;;5026960;28;20053;-76
2022/03/18 14:47:43;;;;;;;18.13;4.40;;;;;;;;;;5034479;28;20791;-77
2022/03/18 14:50:11;;;;;;;19.60;5.78;;;;;;;;;;4985027;28;20144;-77
2022/03/18 14:52:38;;;;;;;14.43;4.53;;;;;;;;;;5027119;28;20286;-76
2022/03/18 14:57:52;;;;;;;23.13;7.82;;;;;;;;;;5012992;28;20460;-77
2022/03/18 15:00:20;;;;;;;20.02;6.55;;;;;;;;;;5008313;28;20613;-77
2022/03/18 15:02:47;;;;;;;24.15;5.97;;;;;;;;;;5021782;28;20049;-77
2022/03/18 15:05:15;;;;;;;24.95;6.03;;;;;;;;;;5029293;28;20444;-77
2022/03/18 15:07:43;;;;;;;21.60;5.85;;;;;;;;;;5032560;28;20049;-77
2022/03/18 15:10:10;;;;;;;21.60;5.13;;;;;;;;;;5007824;28;20156;-77
2022/03/18 15:12:38;;;;;;;21.35;5.53;;;;;;;;;;5026966;28;20355;-77
2022/03/18 15:15:06;;;;;;;16.15;5.28;;;;;;;;;;5012443;28;20073;-77
2022/03/18 15:17:33;;;;;;;22.13;4.82;;;;;;;;;;5042694;28;20167;-77
2022/03/18 15:20:01;;;;;;;34.22;4.88;;;;;;;;;;5027132;28;20152;-77
2022/03/18 15:22:28;;;;;;;15.85;5.75;;;;;;;;;;5021424;28;20148;-78
2022/03/18 15:24:55;;;;;;;27.65;6.03;;;;;;;;;;5028060;28;20666;-78